Terminal Aerodrome Forecast
Issued by NWS

Home | Current Version | Previous Version | Text Only | Print | Product List | Glossary On
Versions: 1 2 3 4 5 6 7 8 9 10 11 12 13 14 15 16 17 18 19 20 21 22 23 24 25 26 27 28 29 30
001
FTUS44 KFWD 200537
TAFGKY
TAF
KGKY 200537Z 2006/2106 17012KT 5SM -RA BR BKN025
      TEMPO 2006/2010 3SM TSRA BKN015CB
     FM201000 25010KT 4SM SHRA BR SCT025 OVC060
      TEMPO 2010/2012 BKN025
     FM201500 18010KT P6SM SCT025 OVC060
     FM202100 17010KT P6SM SCT100
     FM202300 15010KT P6SM SCT300=

USA.gov is the U.S. government's official web portal to all federal, state and local government web resources and services.